createdAt,value
2018-08-14T00:00:42.401Z,99692.92
2018-08-14T00:01:50.209Z,99696.92
2018-08-14T00:02:56.401Z,99700.69
2018-08-14T00:04:02.165Z,99701.05
2018-08-14T00:05:08.084Z,99706.73
2018-08-14T00:06:14.118Z,99704.91
2018-08-14T00:07:20.383Z,99707.58
2018-08-14T00:08:31.181Z,99704.36
2018-08-14T00:09:37.670Z,99714.05
2018-08-14T00:10:43.644Z,99710.27
2018-08-14T00:11:49.778Z,99708.91
2018-08-14T00:12:55.112Z,99710.22
2018-08-14T00:14:00.759Z,99706.52
2018-08-14T00:15:06.054Z,99706.61
2018-08-14T00:16:13.338Z,99701.75
2018-08-14T00:17:19.616Z,99706.23
2018-08-14T00:18:25.536Z,99709.61
2018-08-14T00:19:32.432Z,99708.27
2018-08-14T00:20:38.893Z,99706.39
2018-08-14T00:21:44.591Z,99705.61
2018-08-14T00:22:51.720Z,99710.45
2018-08-14T00:23:57.714Z,99715.55
2018-08-14T00:25:03.119Z,99710.16
2018-08-14T00:26:09.118Z,99708.69
2018-08-14T00:27:14.901Z,99709.17
2018-08-14T00:28:22.727Z,99707.36
2018-08-14T00:29:28.024Z,99709.28
2018-08-14T00:30:34.781Z,99712.86
2018-08-14T00:31:40.859Z,99703.76
2018-08-14T00:32:47.604Z,99704.30
2018-08-14T00:33:54.541Z,99713.77
2018-08-14T00:35:00.652Z,99705.72
2018-08-14T00:36:06.375Z,99705.69
2018-08-14T00:37:12.042Z,99705.45
2018-08-14T00:38:18.496Z,99708.45
2018-08-14T00:39:29.347Z,99706.39
2018-08-14T00:40:35.032Z,99714.86
2018-08-14T00:41:41.852Z,99709.54
2018-08-14T00:42:47.435Z,99719.84
2018-08-14T00:43:53.049Z,99717.58
2018-08-14T00:44:58.708Z,99725.39
2018-08-14T00:46:04.234Z,99728.59
2018-08-14T00:47:10.028Z,99721.62
2018-08-14T00:48:15.636Z,99719.40
2018-08-14T00:49:22.892Z,99721.02
2018-08-14T00:50:28.508Z,99722.86
2018-08-14T00:51:34.457Z,99721.31
2018-08-14T00:52:40.492Z,99719.76
2018-08-14T00:53:46.517Z,99720.77
2018-08-14T00:54:52.790Z,99722.09
2018-08-14T00:55:58.409Z,99720.06
2018-08-14T00:57:04.481Z,99721.52
2018-08-14T00:58:10.417Z,99722.73
2018-08-14T00:59:17.478Z,99717.74
2018-08-14T01:00:24.239Z,99716.67
2018-08-14T01:01:28.451Z,99727.56
2018-08-14T01:02:35.125Z,99723.83
2018-08-14T01:03:40.876Z,99721.80
2018-08-14T01:04:46.124Z,99725.21
2018-08-14T01:05:52.238Z,99717.05
2018-08-14T01:06:58.130Z,99722.12
2018-08-14T01:08:03.836Z,99721.62
2018-08-14T01:09:11.033Z,99719.89
2018-08-14T01:10:16.715Z,99724.21
2018-08-14T01:11:22.525Z,99721.17
2018-08-14T01:12:29.196Z,99722.09
2018-08-14T01:13:35.297Z,99726.48
2018-08-14T01:14:41.612Z,99731.61
2018-08-14T01:15:47.656Z,99725.81
2018-08-14T01:16:53.283Z,99727.84
2018-08-14T01:17:59.448Z,99726.73
2018-08-14T01:19:04.968Z,99721.88
2018-08-14T01:20:10.639Z,99730.93
2018-08-14T01:21:17.408Z,99723.28
2018-08-14T01:22:23.620Z,99728.84
2018-08-14T01:23:29.844Z,99726.97
2018-08-14T01:24:35.982Z,99727.72
2018-08-14T01:25:41.788Z,99722.20
2018-08-14T01:26:48.026Z,99723.02
2018-08-14T01:27:53.466Z,99725.09
2018-08-14T01:28:59.993Z,99722.65
2018-08-14T01:30:06.907Z,99720.03
2018-08-14T01:31:12.844Z,99722.77
2018-08-14T01:32:19.467Z,99721.98
2018-08-14T01:33:25.352Z,99720.33
2018-08-14T01:34:30.920Z,99721.78
2018-08-14T01:35:39.212Z,99725.45
2018-08-14T01:36:45.501Z,99722.59
2018-08-14T01:37:51.318Z,99722.81
2018-08-14T01:38:58.368Z,99717.49
2018-08-14T01:40:04.256Z,99720.32
2018-08-14T01:41:10.528Z,99724.46
2018-08-14T01:42:16.835Z,99725.19
2018-08-14T01:43:22.776Z,99728.36
2018-08-14T01:44:30.053Z,99729.72
2018-08-14T01:45:36.800Z,99731.02
2018-08-14T01:46:42.676Z,99728.23
2018-08-14T01:47:49.575Z,99733.42
2018-08-14T01:48:56.877Z,99737.62
2018-08-14T01:50:02.545Z,99742.04
2018-08-14T01:51:10.818Z,99741.52
2018-08-14T01:52:17.096Z,99743.92
2018-08-14T01:53:23.095Z,99738.50
2018-08-14T01:54:29.656Z,99737.41
2018-08-14T01:55:35.350Z,99739.38
2018-08-14T01:56:42.996Z,99743.60
2018-08-14T01:57:48.735Z,99741.53
2018-08-14T01:58:55.703Z,99748.58
2018-08-14T02:00:01.634Z,99746.18
2018-08-14T02:01:07.465Z,99740.35
2018-08-14T02:02:13.595Z,99744.81
2018-08-14T02:03:20.492Z,99746.92
2018-08-14T02:04:26.644Z,99748.02
2018-08-14T02:05:32.343Z,99745.02
2018-08-14T02:06:39.739Z,99742.47
2018-08-14T02:07:46.705Z,99742.09
2018-08-14T02:08:53.416Z,99746.36
2018-08-14T02:09:59.060Z,99749.53
2018-08-14T02:11:05.608Z,99750.91
2018-08-14T02:12:11.525Z,99746.93
2018-08-14T02:13:16.994Z,99745.00
2018-08-14T02:14:23.032Z,99748.05
2018-08-14T02:15:28.933Z,99748.84
2018-08-14T02:16:34.741Z,99750.22
2018-08-14T02:17:40.660Z,99748.30
2018-08-14T02:18:47.465Z,99746.95
2018-08-14T02:19:53.151Z,99749.66
2018-08-14T02:20:59.033Z,99753.25
2018-08-14T02:22:04.960Z,99756.45
2018-08-14T02:23:10.868Z,99758.63
2018-08-14T02:24:17.124Z,99755.44
2018-08-14T02:25:23.427Z,99753.14
2018-08-14T02:26:30.027Z,99756.08
2018-08-14T02:27:36.101Z,99754.69
2018-08-14T02:28:42.453Z,99755.06
2018-08-14T02:29:50.826Z,99759.31
2018-08-14T02:30:56.921Z,99758.65
2018-08-14T02:32:02.356Z,99764.49
2018-08-14T02:33:09.297Z,99759.35
2018-08-14T02:34:15.212Z,99759.08
2018-08-14T02:35:22.314Z,99756.79
2018-08-14T02:36:27.852Z,99757.16
2018-08-14T02:37:34.008Z,99756.78
2018-08-14T02:38:40.489Z,99761.48
2018-08-14T02:39:46.237Z,99761.38
2018-08-14T02:40:52.746Z,99758.32
2018-08-14T02:41:58.945Z,99762.14
2018-08-14T02:43:05.243Z,99763.89
2018-08-14T02:44:13.020Z,99763.95
2018-08-14T02:45:19.017Z,99765.93
2018-08-14T02:46:25.271Z,99760.84
2018-08-14T02:47:31.685Z,99766.17
2018-08-14T02:48:38.493Z,99758.75
2018-08-14T02:49:43.724Z,99761.47
2018-08-14T02:50:49.700Z,99765.75
2018-08-14T02:51:55.680Z,99761.62
2018-08-14T02:53:01.346Z,99762.88
2018-08-14T02:54:06.946Z,99759.70
2018-08-14T02:55:13.528Z,99760.75
2018-08-14T02:56:19.624Z,99755.16
2018-08-14T02:57:26.304Z,99767.56
2018-08-14T02:58:32.116Z,99767.39
2018-08-14T02:59:37.666Z,99769.49
2018-08-14T03:00:43.370Z,99765.06
2018-08-14T03:01:49.880Z,99762.72
2018-08-14T03:02:55.959Z,99768.56
2018-08-14T03:04:01.696Z,99764.20
2018-08-14T03:05:08.345Z,99765.70
2018-08-14T03:06:14.711Z,99763.95
2018-08-14T03:07:21.346Z,99767.70
2018-08-14T03:08:27.645Z,99768.77
2018-08-14T03:09:33.281Z,99764.81
2018-08-14T03:10:38.836Z,99767.56
2018-08-14T03:11:44.789Z,99770.62
2018-08-14T03:12:50.852Z,99766.28
2018-08-14T03:13:57.284Z,99763.83
2018-08-14T03:15:05.237Z,99772.73
2018-08-14T03:16:11.568Z,99770.81
2018-08-14T03:17:17.933Z,99776.59
2018-08-14T03:18:23.828Z,99778.07
2018-08-14T03:19:29.597Z,99771.46
2018-08-14T03:20:37.029Z,99776.91
2018-08-14T03:21:43.330Z,99779.81
2018-08-14T03:22:49.708Z,99777.61
2018-08-14T03:23:55.968Z,99776.32
2018-08-14T03:25:01.914Z,99778.55
2018-08-14T03:26:08.463Z,99772.25
2018-08-14T03:27:14.043Z,99783.44
2018-08-14T03:28:20.125Z,99793.59
2018-08-14T03:29:27.085Z,99790.70
2018-08-14T03:30:33.210Z,99794.84
2018-08-14T03:31:39.489Z,99789.47
2018-08-14T03:32:45.193Z,99796.99
2018-08-14T03:33:51.200Z,99798.99
2018-08-14T03:34:57.490Z,99798.75
2018-08-14T03:36:04.140Z,99803.66
2018-08-14T03:37:09.720Z,99802.84
2018-08-14T03:38:15.785Z,99801.22
2018-08-14T03:39:22.882Z,99801.73
2018-08-14T03:40:30.108Z,99797.28
2018-08-14T03:41:35.683Z,99804.38
2018-08-14T03:42:41.765Z,99799.42
2018-08-14T03:43:48.505Z,99801.75
2018-08-14T03:44:54.063Z,99802.63
2018-08-14T03:45:59.564Z,99807.34
2018-08-14T03:47:05.566Z,99808.36
2018-08-14T03:48:11.500Z,99808.02
2018-08-14T03:49:18.168Z,99815.93
2018-08-14T03:50:24.039Z,99808.47
2018-08-14T03:51:29.643Z,99815.21
2018-08-14T03:52:36.655Z,99815.06
2018-08-14T03:53:42.896Z,99817.59
2018-08-14T03:54:50.279Z,99819.19
2018-08-14T03:55:56.513Z,99818.29
2018-08-14T03:57:02.866Z,99817.05
2018-08-14T03:58:08.571Z,99827.29
2018-08-14T03:59:15.418Z,99821.31
2018-08-14T04:00:21.442Z,99826.77
2018-08-14T04:01:27.128Z,99821.20
2018-08-14T04:02:33.013Z,99824.92
2018-08-14T04:03:39.260Z,99821.23
2018-08-14T04:04:45.199Z,99823.27
2018-08-14T04:05:52.943Z,99818.03
2018-08-14T04:06:59.116Z,99821.03
2018-08-14T04:08:06.841Z,99823.31
2018-08-14T04:09:13.418Z,99823.44
2018-08-14T04:10:19.428Z,99826.99
2018-08-14T04:11:28.306Z,99823.13
2018-08-14T04:12:34.193Z,99828.38
2018-08-14T04:13:40.615Z,99827.44
2018-08-14T04:14:47.637Z,99828.67
2018-08-14T04:15:54.263Z,99826.08
2018-08-14T04:17:00.899Z,99830.44
2018-08-14T04:18:07.335Z,99831.18
2018-08-14T04:19:13.525Z,99833.92
2018-08-14T04:20:21.240Z,99835.39
2018-08-14T04:21:28.132Z,99838.65
2018-08-14T04:22:34.729Z,99842.22
2018-08-14T04:23:40.980Z,99843.75
2018-08-14T04:24:46.589Z,99843.11
2018-08-14T04:25:52.988Z,99844.08
2018-08-14T04:26:58.942Z,99843.77
2018-08-14T04:28:04.511Z,99846.15
2018-08-14T04:29:10.443Z,99847.86
2018-08-14T04:30:17.174Z,99844.08
2018-08-14T04:31:24.036Z,99846.36
2018-08-14T04:32:30.348Z,99844.83
2018-08-14T04:33:36.665Z,99849.64
2018-08-14T04:34:42.943Z,99856.20
2018-08-14T04:35:49.270Z,99852.52
2018-08-14T04:36:55.589Z,99854.88
2018-08-14T04:38:01.898Z,99853.91
2018-08-14T04:39:07.491Z,99855.30
2018-08-14T04:40:13.456Z,99862.53
2018-08-14T04:41:19.438Z,99861.88
2018-08-14T04:42:25.359Z,99862.19
2018-08-14T04:43:31.041Z,99859.51
2018-08-14T04:44:36.835Z,99861.77
2018-08-14T04:45:43.223Z,99866.58
2018-08-14T04:46:48.911Z,99863.06
2018-08-14T04:47:55.328Z,99873.06
2018-08-14T04:49:01.748Z,99867.97
2018-08-14T04:50:07.617Z,99868.00
2018-08-14T04:51:13.687Z,99869.60
2018-08-14T04:52:19.577Z,99870.13
2018-08-14T04:53:26.854Z,99868.19
2018-08-14T04:54:33.195Z,99867.11
2018-08-14T04:55:39.516Z,99867.12
2018-08-14T04:56:45.504Z,99872.46
2018-08-14T04:57:51.904Z,99866.78
2018-08-14T04:58:57.576Z,99872.06
2018-08-14T05:00:03.246Z,99872.54
2018-08-14T05:01:09.337Z,99871.28
2018-08-14T05:02:15.963Z,99878.98
2018-08-14T05:03:22.010Z,99877.41
2018-08-14T05:04:28.549Z,99887.97
2018-08-14T05:05:34.762Z,99883.51
2018-08-14T05:06:41.067Z,99886.67
2018-08-14T05:07:47.124Z,99888.38
2018-08-14T05:08:53.543Z,99885.69
2018-08-14T05:09:59.825Z,99884.59
2018-08-14T05:11:06.344Z,99886.82
2018-08-14T05:12:12.123Z,99886.96
2018-08-14T05:13:18.973Z,99883.00
2018-08-14T05:14:25.396Z,99882.86
2018-08-14T05:15:31.686Z,99874.77
2018-08-14T05:16:37.907Z,99876.06
2018-08-14T05:17:44.260Z,99879.14
2018-08-14T05:18:50.355Z,99872.81
2018-08-14T05:19:56.426Z,99874.96
2018-08-14T05:21:03.650Z,99875.92
2018-08-14T05:22:09.172Z,99869.57
2018-08-14T05:23:15.455Z,99875.24
2018-08-14T05:24:21.784Z,99877.75
2018-08-14T05:25:27.447Z,99878.89
2018-08-14T05:26:33.688Z,99878.10
2018-08-14T05:27:40.313Z,99882.70
2018-08-14T05:28:46.635Z,99882.02
2018-08-14T05:29:52.891Z,99882.08
2018-08-14T05:30:58.416Z,99879.92
2018-08-14T05:32:04.112Z,99882.92
2018-08-14T05:33:10.504Z,99887.36
2018-08-14T05:34:16.329Z,99881.20
2018-08-14T05:35:22.379Z,99885.03
2018-08-14T05:36:28.657Z,99882.28
2018-08-14T05:37:34.255Z,99888.28
2018-08-14T05:38:40.250Z,99887.40
2018-08-14T05:39:45.961Z,99882.84
2018-08-14T05:40:52.032Z,99894.00
2018-08-14T05:41:58.893Z,99900.47
2018-08-14T05:43:04.175Z,99897.28
2018-08-14T05:44:09.838Z,99893.19
2018-08-14T05:45:15.152Z,99902.34
2018-08-14T05:46:20.560Z,99895.97
2018-08-14T05:47:26.477Z,99900.41
2018-08-14T05:48:32.848Z,99902.80
2018-08-14T05:49:38.602Z,99903.19
2018-08-14T05:50:44.685Z,99908.92
2018-08-14T05:51:50.361Z,99905.63
2018-08-14T05:52:56.708Z,99914.25
2018-08-14T05:54:03.317Z,99912.13
2018-08-14T05:55:09.285Z,99916.21
2018-08-14T05:56:15.364Z,99920.38
2018-08-14T05:57:21.636Z,99922.97
2018-08-14T05:58:27.561Z,99922.77
2018-08-14T05:59:33.244Z,99927.64
2018-08-14T06:00:38.878Z,99927.91
2018-08-14T06:01:45.216Z,99922.53
2018-08-14T06:02:51.876Z,99929.56
2018-08-14T06:03:57.818Z,99924.72
2018-08-14T06:05:03.131Z,99928.56
2018-08-14T06:06:08.856Z,99930.00
2018-08-14T06:07:14.835Z,99923.28
2018-08-14T06:08:20.817Z,99927.80
2018-08-14T06:09:27.100Z,99922.77
2018-08-14T06:10:33.030Z,99927.75
2018-08-14T06:11:38.567Z,99932.12
2018-08-14T06:12:44.609Z,99932.23
2018-08-14T06:13:50.562Z,99935.47
2018-08-14T06:14:56.533Z,99937.12
2018-08-14T06:16:02.879Z,99939.03
2018-08-14T06:17:08.539Z,99942.58
2018-08-14T06:18:15.818Z,99945.58
2018-08-14T06:19:21.829Z,99938.64
2018-08-14T06:20:27.659Z,99940.02
2018-08-14T06:21:33.319Z,99929.31
2018-08-14T06:22:39.373Z,99937.96
2018-08-14T06:23:45.243Z,99939.45
2018-08-14T06:24:51.224Z,99938.45
2018-08-14T06:25:57.658Z,99942.61
2018-08-14T06:27:06.961Z,99944.34
2018-08-14T06:28:12.647Z,99944.81
2018-08-14T06:29:19.901Z,99944.94
2018-08-14T06:30:26.261Z,99948.45
2018-08-14T06:31:32.324Z,99949.38
2018-08-14T06:32:38.370Z,99943.50
2018-08-14T06:33:44.804Z,99947.00
2018-08-14T06:34:50.425Z,99946.48
2018-08-14T06:35:56.872Z,99948.06
2018-08-14T06:37:02.608Z,99944.68
2018-08-14T06:38:09.681Z,99943.20
2018-08-14T06:39:17.135Z,99942.84
2018-08-14T06:40:25.509Z,99950.72
2018-08-14T06:41:31.939Z,99947.19
2018-08-14T06:42:39.025Z,99945.29
2018-08-14T06:43:45.393Z,99947.95
2018-08-14T06:44:51.714Z,99948.05
2018-08-14T06:45:57.636Z,99948.19
2018-08-14T06:47:04.086Z,99948.58
2018-08-14T06:48:10.473Z,99950.16
2018-08-14T06:49:16.032Z,99955.84
2018-08-14T06:50:23.231Z,99950.96
2018-08-14T06:51:29.591Z,99953.65
2018-08-14T06:52:37.194Z,99957.16
2018-08-14T06:53:43.398Z,99955.31
2018-08-14T06:54:49.300Z,99956.06
2018-08-14T06:55:55.348Z,99952.63
2018-08-14T06:57:01.303Z,99955.69
2018-08-14T06:58:07.329Z,99960.02
2018-08-14T06:59:13.346Z,99959.46
2018-08-14T07:00:19.425Z,99956.17
2018-08-14T07:01:25.666Z,99959.45
2018-08-14T07:02:31.632Z,99954.07
2018-08-14T07:03:37.351Z,99956.52
2018-08-14T07:04:43.592Z,99952.87
2018-08-14T07:05:49.199Z,99958.34
2018-08-14T07:06:55.109Z,99956.67
2018-08-14T07:08:00.792Z,99952.04
2018-08-14T07:09:06.384Z,99950.63
2018-08-14T07:10:12.355Z,99950.47
2018-08-14T07:11:17.984Z,99955.41
2018-08-14T07:12:24.368Z,99946.28
2018-08-14T07:13:30.254Z,99952.92
2018-08-14T07:14:35.932Z,99952.66
2018-08-14T07:15:41.974Z,99962.40
2018-08-14T07:16:47.962Z,99952.78
2018-08-14T07:17:53.966Z,99962.34
2018-08-14T07:19:00.221Z,99965.30
2018-08-14T07:20:06.022Z,99963.31
2018-08-14T07:21:12.361Z,99961.02
2018-08-14T07:22:18.895Z,99962.63
2018-08-14T07:23:25.457Z,99960.52
2018-08-14T07:24:31.620Z,99962.67
2018-08-14T07:25:37.188Z,99959.03
2018-08-14T07:26:43.818Z,99958.02
2018-08-14T07:27:49.904Z,99957.42
2018-08-14T07:28:56.435Z,99952.71
2018-08-14T07:30:02.047Z,99956.11
2018-08-14T07:31:08.408Z,99957.08
2018-08-14T07:32:14.393Z,99952.08
2018-08-14T07:33:20.424Z,99954.48
2018-08-14T07:34:26.453Z,99951.24
2018-08-14T07:35:32.181Z,99949.91
2018-08-14T07:36:38.419Z,99949.66
2018-08-14T07:37:44.050Z,99944.56
2018-08-14T07:38:49.757Z,99940.62
2018-08-14T07:39:56.172Z,99940.75
2018-08-14T07:41:02.103Z,99939.20
2018-08-14T07:42:08.120Z,99940.53
2018-08-14T07:43:14.259Z,99941.80
2018-08-14T07:44:20.485Z,99941.53
2018-08-14T07:45:27.047Z,99934.93
2018-08-14T07:46:32.408Z,99944.11
2018-08-14T07:47:38.792Z,99946.91
2018-08-14T07:48:45.093Z,99943.43
2018-08-14T07:49:51.436Z,99939.16
2018-08-14T07:50:57.756Z,99938.70
2018-08-14T07:52:03.682Z,99932.64
2018-08-14T07:53:10.053Z,99933.91
2018-08-14T07:54:16.004Z,99935.05
2018-08-14T07:55:22.276Z,99939.16
2018-08-14T07:56:28.840Z,99942.06
2018-08-14T07:57:34.853Z,99929.17
2018-08-14T07:58:40.865Z,99937.66
2018-08-14T07:59:47.233Z,99940.16
2018-08-14T08:00:53.521Z,99940.52
2018-08-14T08:01:59.634Z,99938.61
2018-08-14T08:03:05.255Z,99944.00
2018-08-14T08:04:10.861Z,99949.64
2018-08-14T08:05:16.975Z,99945.34
2018-08-14T08:06:23.347Z,99946.91
2018-08-14T08:07:29.631Z,99940.55
2018-08-14T08:08:35.265Z,99936.42
2018-08-14T08:09:41.669Z,99938.02
2018-08-14T08:10:47.995Z,99943.84
2018-08-14T08:11:54.296Z,99938.94
2018-08-14T08:13:00.902Z,99942.69
2018-08-14T08:14:06.525Z,99946.84
2018-08-14T08:15:12.251Z,99945.80
2018-08-14T08:16:17.912Z,99950.47
2018-08-14T08:17:23.850Z,99953.50
2018-08-14T08:18:30.016Z,99945.11
2018-08-14T08:19:35.674Z,99943.89
2018-08-14T08:20:41.411Z,99946.81
2018-08-14T08:21:47.040Z,99939.76
2018-08-14T08:22:52.408Z,99942.25
2018-08-14T08:23:58.787Z,99948.20
2018-08-14T08:25:04.666Z,99952.02
2018-08-14T08:26:10.617Z,99951.34
2018-08-14T08:27:16.564Z,99956.02
2018-08-14T08:28:34.430Z,99951.65
2018-08-14T08:29:48.889Z,99956.83
2018-08-14T08:30:55.235Z,99956.94
2018-08-14T08:32:01.503Z,99956.85
2018-08-14T08:33:07.741Z,99970.90
2018-08-14T08:34:13.715Z,99963.20
2018-08-14T08:35:19.832Z,99969.17
2018-08-14T08:36:25.499Z,99967.23
2018-08-14T08:37:31.848Z,99965.84
2018-08-14T08:38:38.147Z,99964.91
2018-08-14T08:39:44.167Z,99962.34
2018-08-14T08:40:49.825Z,99957.70
2018-08-14T08:41:56.097Z,99965.34
2018-08-14T08:43:02.581Z,99965.07
2018-08-14T08:44:08.561Z,99964.69
2018-08-14T08:45:14.628Z,99958.80
2018-08-14T08:46:20.706Z,99966.38
2018-08-14T08:47:26.751Z,99962.20
2018-08-14T08:48:32.156Z,99964.97
2018-08-14T08:49:38.421Z,99967.89
2018-08-14T08:50:43.751Z,99962.61
2018-08-14T08:51:49.704Z,99965.38
2018-08-14T08:52:55.332Z,99962.12
2018-08-14T08:54:01.049Z,99961.95
2018-08-14T08:55:06.612Z,99953.77
2018-08-14T08:56:13.601Z,99961.05
2018-08-14T08:57:19.523Z,99961.44
2018-08-14T08:58:25.600Z,99966.19
2018-08-14T08:59:31.847Z,99955.03
2018-08-14T09:00:37.819Z,99961.09
2018-08-14T09:01:44.163Z,99966.92
2018-08-14T09:02:50.484Z,99972.48
2018-08-14T09:03:56.868Z,99970.47
2018-08-14T09:05:02.989Z,99970.18
2018-08-14T09:06:08.654Z,99969.03
2018-08-14T09:07:14.644Z,99967.27
2018-08-14T09:08:20.017Z,99969.65
2018-08-14T09:09:26.210Z,99968.09
2018-08-14T09:10:33.867Z,99964.61
2018-08-14T09:11:39.600Z,99962.04
2018-08-14T09:12:45.967Z,99976.41
2018-08-14T09:13:51.584Z,99966.83
2018-08-14T09:14:57.957Z,99963.20
2018-08-14T09:16:03.523Z,99968.80
2018-08-14T09:17:09.124Z,99967.98
2018-08-14T09:18:15.167Z,99972.70
2018-08-14T09:19:21.476Z,99968.52
2018-08-14T09:20:27.472Z,99974.68
2018-08-14T09:21:33.403Z,99962.78
2018-08-14T09:22:38.996Z,99978.06
2018-08-14T09:23:44.356Z,99972.50
2018-08-14T09:24:50.736Z,99971.58
2018-08-14T09:25:56.346Z,99971.44
2018-08-14T09:27:02.639Z,99974.58
2018-08-14T09:28:08.646Z,99974.08
2018-08-14T09:29:14.669Z,99979.36
2018-08-14T09:30:20.553Z,99978.16
2018-08-14T09:31:26.559Z,99973.52
2018-08-14T09:32:32.612Z,99981.79
2018-08-14T09:33:38.706Z,99980.27
2018-08-14T09:34:44.777Z,99985.09
2018-08-14T09:35:51.337Z,99987.63
2018-08-14T09:36:57.175Z,99987.25
2018-08-14T09:38:03.450Z,99980.25
2018-08-14T09:39:09.530Z,99984.70
2018-08-14T09:40:14.888Z,99981.69
2018-08-14T09:41:20.392Z,99982.80
2018-08-14T09:42:26.397Z,99984.48
2018-08-14T09:43:32.055Z,99986.03
2018-08-14T09:44:38.197Z,99977.22
2018-08-14T09:45:43.574Z,99985.97
2018-08-14T09:46:49.653Z,99989.44
2018-08-14T09:47:55.736Z,99991.58
2018-08-14T09:49:01.662Z,99987.73
2018-08-14T09:50:07.340Z,99991.17
2018-08-14T09:51:13.368Z,99986.63
2018-08-14T09:52:19.373Z,99990.80
2018-08-14T09:53:25.452Z,99991.45
2018-08-14T09:54:31.852Z,99985.87
2018-08-14T09:55:37.618Z,99989.99
2018-08-14T09:56:43.928Z,99984.55
2018-08-14T09:57:49.512Z,99981.55
2018-08-14T09:58:55.564Z,99986.67
2018-08-14T10:00:02.198Z,99980.31
2018-08-14T10:01:07.532Z,99987.27
2018-08-14T10:02:13.091Z,99977.58
2018-08-14T10:03:18.754Z,99976.06
2018-08-14T10:04:24.142Z,99981.14
2018-08-14T10:05:29.607Z,99980.20
2018-08-14T10:06:35.040Z,99984.42
2018-08-14T10:07:40.817Z,99980.45
2018-08-14T10:08:46.238Z,99980.80
2018-08-14T10:09:52.046Z,99979.03
2018-08-14T10:10:57.601Z,99986.41
2018-08-14T10:12:03.190Z,99980.55
2018-08-14T10:13:09.256Z,99981.29
2018-08-14T10:14:15.254Z,99971.18
2018-08-14T10:15:21.766Z,99978.31
2018-08-14T10:16:27.816Z,99980.45
2018-08-14T10:17:33.104Z,99986.23
2018-08-14T10:18:39.207Z,99979.02
2018-08-14T10:19:45.179Z,99988.80
2018-08-14T10:20:50.948Z,99988.91
2018-08-14T10:21:56.981Z,99980.88
2018-08-14T10:23:02.628Z,99982.84
2018-08-14T10:24:08.559Z,99975.48
2018-08-14T10:25:14.356Z,99978.87
2018-08-14T10:26:19.977Z,99974.29
2018-08-14T10:27:25.329Z,99971.66
2018-08-14T10:28:31.690Z,99976.76
2018-08-14T10:29:37.519Z,99983.59
2018-08-14T10:30:43.171Z,99977.22
2018-08-14T10:31:48.862Z,99975.88
2018-08-14T10:32:54.580Z,99978.63
2018-08-14T10:34:00.355Z,99978.83
2018-08-14T10:35:06.357Z,99979.29
2018-08-14T10:36:12.442Z,99983.91
2018-08-14T10:37:18.064Z,99983.70
2018-08-14T10:38:23.309Z,99982.47
2018-08-14T10:39:28.953Z,99978.24
2018-08-14T10:40:34.746Z,99979.61
2018-08-14T10:41:40.733Z,99980.56
2018-08-14T10:42:46.692Z,99982.53
2018-08-14T10:43:52.334Z,99982.01
2018-08-14T10:44:58.648Z,99981.79
2018-08-14T10:46:04.239Z,99976.48
2018-08-14T10:47:10.285Z,99978.44
2018-08-14T10:48:15.919Z,99984.40
2018-08-14T10:49:21.326Z,99981.17
2018-08-14T10:50:27.547Z,99973.76
2018-08-14T10:51:33.216Z,99977.34
2018-08-14T10:52:38.831Z,99980.58
2018-08-14T10:53:44.887Z,99983.95
2018-08-14T10:54:50.562Z,99981.25
2018-08-14T10:55:56.260Z,99976.63
2018-08-14T10:57:01.990Z,99968.64
2018-08-14T10:58:07.605Z,99973.25
2018-08-14T10:59:13.748Z,99979.99
2018-08-14T11:00:19.660Z,99981.41
2018-08-14T11:01:25.275Z,99975.91
2018-08-14T11:02:31.285Z,99983.56
2018-08-14T11:03:37.214Z,99976.05
2018-08-14T11:04:43.229Z,99977.42
2018-08-14T11:05:49.639Z,99980.49
2018-08-14T11:06:55.949Z,99977.42
2018-08-14T11:08:02.084Z,99979.92
2018-08-14T11:09:08.508Z,99984.01
2018-08-14T11:10:14.089Z,99979.47
2018-08-14T11:11:20.385Z,99986.77
2018-08-14T11:12:26.370Z,99987.96
2018-08-14T11:13:32.756Z,99995.53
2018-08-14T11:14:38.674Z,99988.09
2018-08-14T11:15:44.216Z,99991.13
2018-08-14T11:16:50.206Z,99992.72
2018-08-14T11:17:56.167Z,99999.09
2018-08-14T11:19:02.537Z,99993.81
2018-08-14T11:20:08.140Z,99998.67
2018-08-14T11:21:14.097Z,100001.06
2018-08-14T11:22:20.200Z,99995.71
2018-08-14T11:23:26.504Z,99996.94
2018-08-14T11:24:32.665Z,100005.92
2018-08-14T11:25:38.722Z,100004.55
2018-08-14T11:26:44.786Z,100008.03
2018-08-14T11:27:50.524Z,100002.95
2018-08-14T11:28:56.548Z,100002.01
2018-08-14T11:30:03.087Z,100000.22
2018-08-14T11:31:10.020Z,100005.54
2018-08-14T11:32:16.469Z,99997.12
2018-08-14T11:33:22.735Z,100005.16
2018-08-14T11:34:28.714Z,99993.03
2018-08-14T11:35:34.482Z,99996.91
2018-08-14T11:36:40.103Z,99994.43
2018-08-14T11:37:45.725Z,99993.56
2018-08-14T11:38:51.601Z,99999.44
2018-08-14T11:39:57.514Z,99991.65
2018-08-14T11:41:03.672Z,100000.36
2018-08-14T11:42:09.729Z,100000.88
2018-08-14T11:43:15.704Z,100003.69
2018-08-14T11:44:21.638Z,99995.27
2018-08-14T11:45:27.539Z,99999.70
2018-08-14T11:46:33.523Z,99999.64
2018-08-14T11:47:39.820Z,99998.51
2018-08-14T11:48:46.115Z,100000.95
2018-08-14T11:49:52.067Z,100001.80
2018-08-14T11:50:59.090Z,100002.99
2018-08-14T11:52:05.316Z,100010.42
2018-08-14T11:53:11.343Z,100010.59
2018-08-14T11:54:17.685Z,100012.44
2018-08-14T11:55:24.090Z,100006.44
2018-08-14T11:56:29.691Z,100011.90
2018-08-14T11:57:35.373Z,100009.50
2018-08-14T11:58:41.779Z,100010.84
2018-08-14T11:59:48.094Z,100013.59
2018-08-14T12:00:54.620Z,100013.98
2018-08-14T12:02:00.367Z,100018.53
2018-08-14T12:03:06.358Z,100015.01
2018-08-14T12:04:12.311Z,100012.99
2018-08-14T12:05:17.724Z,100019.87
2018-08-14T12:06:23.651Z,100014.09
2018-08-14T12:07:29.638Z,100021.53
2018-08-14T12:08:35.660Z,100019.27
2018-08-14T12:09:41.623Z,100010.01
2018-08-14T12:10:47.719Z,100013.95
2018-08-14T12:11:53.352Z,100013.55
2018-08-14T12:12:59.462Z,100004.14
2018-08-14T12:14:06.048Z,100015.94
2018-08-14T12:15:11.682Z,100009.97
2018-08-14T12:16:17.772Z,100002.87
2018-08-14T12:17:24.064Z,100005.88
2018-08-14T12:18:30.173Z,100001.91
2018-08-14T12:19:36.337Z,100003.42
2018-08-14T12:20:42.316Z,99996.19
2018-08-14T12:21:48.630Z,100002.48
2018-08-14T12:22:54.940Z,100004.64
2018-08-14T12:24:01.225Z,100003.70
2018-08-14T12:25:06.897Z,99998.07
2018-08-14T12:26:13.132Z,100006.66
2018-08-14T12:27:19.311Z,100001.02
2018-08-14T12:28:25.887Z,100007.73
2018-08-14T12:29:32.169Z,100001.39
2018-08-14T12:30:38.288Z,100004.42
2018-08-14T12:31:44.599Z,100007.22
2018-08-14T12:32:50.934Z,100014.59
2018-08-14T12:33:56.861Z,100013.08
2018-08-14T12:35:02.929Z,100009.60
2018-08-14T12:36:08.542Z,100010.95
2018-08-14T12:37:14.557Z,100014.94
2018-08-14T12:38:20.503Z,100013.07
2018-08-14T12:39:26.559Z,100007.45
2018-08-14T12:40:32.267Z,100015.61
2018-08-14T12:41:38.805Z,100009.62
2018-08-14T12:42:44.186Z,100015.48
2018-08-14T12:43:50.748Z,100021.53
2018-08-14T12:44:56.876Z,100014.73
2018-08-14T12:46:02.587Z,100022.09
2018-08-14T12:47:08.327Z,100028.28
2018-08-14T12:48:14.687Z,100021.64
2018-08-14T12:49:20.620Z,100016.77
2018-08-14T12:50:26.620Z,100018.13
2018-08-14T12:51:32.881Z,100015.16
2018-08-14T12:52:39.128Z,100017.84
2018-08-14T12:53:45.558Z,100018.38
2018-08-14T12:54:51.138Z,100012.33